createdAt,value
2022-08-17T00:01:51.568Z,38.63
2022-08-17T00:04:22.953Z,38.58
2022-08-17T00:06:53.437Z,38.51
2022-08-17T00:09:26.090Z,38.59
2022-08-17T00:12:42.248Z,39.00
2022-08-17T00:14:46.120Z,39.17
2022-08-17T00:17:15.984Z,38.40
2022-08-17T00:19:45.784Z,38.32
2022-08-17T00:22:33.253Z,38.15
2022-08-17T00:25:12.132Z,38.05
2022-08-17T00:27:42.404Z,37.80
2022-08-17T00:30:14.859Z,37.88
2022-08-17T00:33:12.285Z,38.36
2022-08-17T00:35:37.799Z,38.41
2022-08-17T00:38:09.942Z,38.36
2022-08-17T00:40:47.029Z,38.52
2022-08-17T00:43:21.824Z,38.14
2022-08-17T00:45:52.404Z,38.37
2022-08-17T00:48:29.394Z,38.56
2022-08-17T00:51:08.329Z,38.88
2022-08-17T00:53:41.973Z,38.54
2022-08-17T00:56:21.095Z,39.25
2022-08-17T00:58:53.057Z,39.29
2022-08-17T01:01:23.553Z,38.97
2022-08-17T01:03:57.055Z,39.01
2022-08-17T01:06:30.495Z,39.40
2022-08-17T01:09:03.494Z,39.68
2022-08-17T01:11:37.231Z,39.58
2022-08-17T01:14:07.893Z,39.71
2022-08-17T01:16:40.060Z,38.99
2022-08-17T01:19:16.373Z,39.34
2022-08-17T01:21:53.105Z,39.71
2022-08-17T01:24:26.023Z,39.33
2022-08-17T01:26:56.611Z,39.51
2022-08-17T01:29:30.841Z,39.58
2022-08-17T01:32:04.429Z,39.78
2022-08-17T01:34:43.639Z,39.92
2022-08-17T01:37:15.745Z,39.68
2022-08-17T01:39:51.849Z,39.80
2022-08-17T01:42:29.155Z,39.90
2022-08-17T01:45:04.674Z,40.07
2022-08-17T01:47:36.136Z,40.04
2022-08-17T01:50:12.066Z,39.88
2022-08-17T01:52:43.076Z,40.05
2022-08-17T01:55:16.680Z,40.08
2022-08-17T01:57:47.272Z,40.12
2022-08-17T02:00:18.384Z,40.07
2022-08-17T02:02:48.378Z,39.92
2022-08-17T02:05:18.459Z,40.01
2022-08-17T02:08:00.501Z,40.14
2022-08-17T02:10:34.724Z,40.10
2022-08-17T02:13:07.217Z,40.13
2022-08-17T02:15:37.388Z,40.12
2022-08-17T02:18:08.415Z,40.23
2022-08-17T02:20:42.349Z,39.76
2022-08-17T02:23:14.497Z,39.95
2022-08-17T02:25:50.292Z,40.27
2022-08-17T02:28:21.163Z,39.83
2022-08-17T02:31:01.462Z,40.48
2022-08-17T02:33:43.114Z,40.06
2022-08-17T02:36:15.539Z,40.39
2022-08-17T02:38:45.376Z,40.17
2022-08-17T02:41:17.801Z,40.16
2022-08-17T02:43:48.018Z,40.25
2022-08-17T02:46:19.563Z,40.27
2022-08-17T02:48:49.414Z,40.25
2022-08-17T02:51:19.348Z,40.33
2022-08-17T02:53:49.501Z,40.46
2022-08-17T02:56:21.976Z,40.28
2022-08-17T02:58:51.890Z,40.64
2022-08-17T03:01:21.777Z,40.55
2022-08-17T03:03:51.738Z,40.55
2022-08-17T03:06:21.623Z,40.72
2022-08-17T03:08:52.039Z,40.91
2022-08-17T03:11:24.548Z,40.64
2022-08-17T03:13:54.464Z,40.52
2022-08-17T03:16:24.361Z,40.40
2022-08-17T03:18:54.809Z,40.43
2022-08-17T03:21:39.611Z,40.49
2022-08-17T03:24:09.509Z,40.67
2022-08-17T03:26:42.961Z,40.54
2022-08-17T03:29:18.883Z,40.41
2022-08-17T03:31:49.421Z,40.74
2022-08-17T03:34:20.260Z,40.45
2022-08-17T03:36:50.335Z,40.85
2022-08-17T03:39:20.236Z,40.76
2022-08-17T03:41:52.616Z,41.11
2022-08-17T03:44:22.552Z,40.88
2022-08-17T03:47:04.815Z,40.92
2022-08-17T03:49:47.211Z,40.84
2022-08-17T03:52:29.498Z,40.69
2022-08-17T03:55:11.814Z,40.87
2022-08-17T03:57:44.244Z,41.02
2022-08-17T04:00:15.661Z,41.04
2022-08-17T04:02:45.749Z,40.95
2022-08-17T04:05:15.619Z,40.88
2022-08-17T04:07:47.545Z,40.87
2022-08-17T04:10:17.442Z,40.85
2022-08-17T04:12:52.964Z,41.10
2022-08-17T04:15:23.914Z,40.69
2022-08-17T04:17:54.321Z,40.83
2022-08-17T04:20:27.291Z,40.75
2022-08-17T04:23:02.260Z,40.68
2022-08-17T04:25:34.594Z,40.75
2022-08-17T04:28:16.038Z,40.78
2022-08-17T04:30:47.766Z,40.82
2022-08-17T04:33:20.583Z,41.09
2022-08-17T04:35:52.622Z,41.25
2022-08-17T04:38:25.110Z,41.17
2022-08-17T04:41:07.974Z,41.24
2022-08-17T04:43:43.539Z,41.29
2022-08-17T04:46:15.599Z,41.35
2022-08-17T04:48:47.871Z,41.13
2022-08-17T04:51:20.761Z,41.45
2022-08-17T04:53:54.575Z,41.08
2022-08-17T04:56:26.658Z,41.19
2022-08-17T04:59:01.593Z,41.33
2022-08-17T05:01:35.243Z,41.58
2022-08-17T05:04:33.153Z,41.13
2022-08-17T05:06:59.117Z,41.43
2022-08-17T05:09:30.153Z,41.23
2022-08-17T05:12:03.364Z,40.81
2022-08-17T05:14:35.749Z,40.82
2022-08-17T05:17:07.408Z,40.80
2022-08-17T05:19:41.291Z,40.85
2022-08-17T05:22:11.189Z,41.00
2022-08-17T05:24:43.468Z,40.78
2022-08-17T05:27:23.648Z,40.75
2022-08-17T05:29:56.124Z,40.76
2022-08-17T05:32:37.822Z,40.66
2022-08-17T05:35:10.555Z,40.15
2022-08-17T05:37:40.432Z,40.02
2022-08-17T05:40:11.429Z,39.20
2022-08-17T05:42:41.349Z,39.19
2022-08-17T05:45:15.758Z,38.84
2022-08-17T05:47:49.002Z,38.99
2022-08-17T05:50:27.195Z,39.11
2022-08-17T05:53:06.585Z,39.22
2022-08-17T05:55:43.828Z,39.08
2022-08-17T05:58:25.161Z,39.66
2022-08-17T06:01:06.484Z,38.90
2022-08-17T06:03:45.762Z,39.01
2022-08-17T06:06:31.411Z,37.63
2022-08-17T06:09:21.227Z,38.33
2022-08-17T06:12:00.495Z,38.67
2022-08-17T06:14:51.240Z,38.47
2022-08-17T06:17:27.885Z,38.12
2022-08-17T06:20:00.705Z,37.43
2022-08-17T06:22:35.834Z,37.92
2022-08-17T06:25:10.498Z,38.05
2022-08-17T06:27:44.834Z,37.15
2022-08-17T06:30:18.015Z,37.03
2022-08-17T06:32:52.892Z,36.78
2022-08-17T06:35:31.968Z,37.61
2022-08-17T06:38:12.958Z,37.47
2022-08-17T06:41:12.408Z,36.22
2022-08-17T06:44:06.204Z,36.99
2022-08-17T06:46:39.764Z,37.08
2022-08-17T06:49:21.926Z,35.41
2022-08-17T06:51:55.075Z,35.78
2022-08-17T06:54:36.212Z,34.40
2022-08-17T06:57:15.333Z,35.58
2022-08-17T06:59:55.327Z,35.66
2022-08-17T07:02:52.680Z,35.02
2022-08-17T07:05:30.149Z,34.91
2022-08-17T07:08:06.312Z,34.94
2022-08-17T07:10:43.690Z,35.31
2022-08-17T07:13:26.121Z,34.60
2022-08-17T07:16:04.775Z,35.30
2022-08-17T07:18:35.727Z,35.04
2022-08-17T07:21:17.648Z,34.23
2022-08-17T07:24:01.727Z,34.47
2022-08-17T07:26:31.726Z,33.56
2022-08-17T07:29:03.462Z,33.37
2022-08-17T07:31:34.063Z,33.72
2022-08-17T07:34:14.470Z,32.63
2022-08-17T07:36:47.035Z,33.37
2022-08-17T07:39:30.424Z,32.05
2022-08-17T07:42:05.919Z,32.37
2022-08-17T07:44:55.534Z,33.29
2022-08-17T07:47:38.270Z,32.36
2022-08-17T07:50:27.742Z,32.77
2022-08-17T07:53:00.242Z,32.96
2022-08-17T07:55:35.055Z,31.26
2022-08-17T07:58:04.994Z,30.97
2022-08-17T08:00:34.856Z,30.33
2022-08-17T08:03:16.683Z,30.75
2022-08-17T08:05:56.218Z,30.61
2022-08-17T08:08:35.882Z,30.27
2022-08-17T08:11:12.271Z,30.21
2022-08-17T08:13:45.893Z,30.67
2022-08-17T08:16:29.376Z,30.72
2022-08-17T08:19:02.025Z,30.19
2022-08-17T08:21:39.465Z,29.24
2022-08-17T08:24:30.973Z,28.99
2022-08-17T08:27:10.915Z,29.46
2022-08-17T08:29:50.230Z,29.33
2022-08-17T08:32:26.000Z,29.35
2022-08-17T08:35:06.608Z,29.17
2022-08-17T08:37:46.599Z,28.88
2022-08-17T08:40:32.837Z,28.49
2022-08-17T08:43:12.910Z,28.98
2022-08-17T08:45:52.259Z,27.60
2022-08-17T08:48:53.873Z,28.49
2022-08-17T08:51:37.936Z,28.48
2022-08-17T08:54:20.234Z,28.20
2022-08-17T08:57:24.370Z,27.46
2022-08-17T09:00:06.987Z,28.10
2022-08-17T09:02:49.786Z,28.00
2022-08-17T09:05:33.549Z,26.89
2022-08-17T09:08:13.827Z,26.99
2022-08-17T09:10:56.811Z,27.57
2022-08-17T09:13:39.422Z,26.82
2022-08-17T09:16:17.518Z,25.55
2022-08-17T09:19:00.285Z,25.75
2022-08-17T09:21:47.706Z,25.26
2022-08-17T09:24:26.629Z,24.83
2022-08-17T09:27:03.723Z,25.17
2022-08-17T09:29:39.452Z,24.46
2022-08-17T09:32:17.811Z,24.49
2022-08-17T09:34:54.879Z,24.43
2022-08-17T09:37:32.264Z,24.56
2022-08-17T09:40:14.741Z,24.42
2022-08-17T09:42:51.412Z,24.50
2022-08-17T09:45:37.418Z,24.06
2022-08-17T09:48:14.407Z,24.08
2022-08-17T09:51:03.159Z,23.76
2022-08-17T09:53:38.662Z,23.45
2022-08-17T09:56:31.269Z,23.76
2022-08-17T09:59:25.094Z,23.86
2022-08-17T10:02:16.625Z,23.05
2022-08-17T10:04:53.785Z,23.05
2022-08-17T10:07:32.465Z,22.45
2022-08-17T10:10:14.233Z,21.32
2022-08-17T10:13:00.566Z,22.54
2022-08-17T10:15:44.139Z,21.05
2022-08-17T10:18:31.958Z,21.05
2022-08-17T10:21:21.443Z,20.04
2022-08-17T10:24:07.901Z,20.36
2022-08-17T10:26:56.942Z,19.79
2022-08-17T10:29:40.830Z,19.97
2022-08-17T10:32:32.767Z,19.44
2022-08-17T10:35:26.885Z,19.34
2022-08-17T10:38:25.614Z,19.05
2022-08-17T10:41:00.301Z,19.32
2022-08-17T10:43:38.642Z,19.12
2022-08-17T10:46:30.216Z,18.51
2022-08-17T10:49:27.928Z,18.00
2022-08-17T10:52:03.158Z,17.70
2022-08-17T10:54:48.361Z,18.86
2022-08-17T10:57:38.751Z,18.82
2022-08-17T11:00:16.161Z,19.27
2022-08-17T11:02:52.197Z,19.27
2022-08-17T11:05:44.425Z,19.04
2022-08-17T11:08:44.982Z,19.94
2022-08-17T11:11:59.175Z,20.06
2022-08-17T11:14:42.648Z,20.56
2022-08-17T11:17:41.516Z,21.20
2022-08-17T11:20:41.441Z,21.77
2022-08-17T11:23:30.829Z,22.28
2022-08-17T11:26:08.645Z,21.71
2022-08-17T11:28:52.669Z,21.38
2022-08-17T11:31:38.823Z,21.54
2022-08-17T11:34:19.931Z,20.75
2022-08-17T11:37:17.625Z,21.67
2022-08-17T11:40:06.662Z,21.31
2022-08-17T11:43:02.060Z,20.97
2022-08-17T11:45:44.763Z,21.44
2022-08-17T11:48:34.177Z,22.24
2022-08-17T11:51:27.580Z,21.53
2022-08-17T11:56:55.757Z,22.66
2022-08-17T11:59:55.608Z,23.00
2022-08-17T12:02:47.768Z,22.94
2022-08-17T12:05:35.715Z,23.20
2022-08-17T12:08:18.761Z,23.12
2022-08-17T12:10:58.741Z,23.24
2022-08-17T12:13:38.435Z,22.95
2022-08-17T12:16:10.199Z,23.60
2022-08-17T12:18:42.952Z,22.55
2022-08-17T12:21:35.630Z,22.65
2022-08-17T12:24:14.254Z,23.10
2022-08-17T12:26:45.308Z,22.69
2022-08-17T12:29:35.579Z,23.40
2022-08-17T12:32:10.026Z,22.99
2022-08-17T12:34:45.790Z,22.67
2022-08-17T12:37:19.465Z,23.14
2022-08-17T12:39:59.802Z,23.60
2022-08-17T12:42:34.825Z,23.46
2022-08-17T12:45:06.823Z,23.62
2022-08-17T12:47:40.100Z,23.80
2022-08-17T12:50:28.458Z,23.19
2022-08-17T12:53:02.485Z,22.59
2022-08-17T12:55:39.029Z,22.02
2022-08-17T12:58:14.652Z,22.45
2022-08-17T13:00:51.629Z,22.69
2022-08-17T13:03:24.532Z,22.65
2022-08-17T13:06:07.434Z,22.73
2022-08-17T13:08:40.015Z,22.35
2022-08-17T13:11:12.916Z,21.92
2022-08-17T13:13:45.554Z,22.18
2022-08-17T13:16:20.764Z,22.06
2022-08-17T13:18:54.689Z,22.72
2022-08-17T13:21:33.282Z,22.09
2022-08-17T13:24:06.001Z,22.03
2022-08-17T13:26:39.738Z,21.87
2022-08-17T13:29:36.061Z,22.65
2022-08-17T13:32:20.228Z,22.26
2022-08-17T13:35:14.969Z,22.26
2022-08-17T13:38:01.382Z,22.66
2022-08-17T13:40:41.778Z,22.37
2022-08-17T13:43:13.147Z,22.92
2022-08-17T13:45:55.119Z,22.91
2022-08-17T13:48:29.318Z,22.34
2022-08-17T13:51:25.235Z,22.52
2022-08-17T13:54:03.914Z,22.68
2022-08-17T13:56:41.381Z,22.92
2022-08-17T13:59:15.457Z,22.75
2022-08-17T14:01:53.564Z,22.66
2022-08-17T14:04:27.916Z,22.49
2022-08-17T14:06:59.694Z,22.68
2022-08-17T14:09:37.461Z,22.42
2022-08-17T14:12:12.249Z,22.20
2022-08-17T14:14:43.066Z,22.08
2022-08-17T14:17:13.249Z,21.97
2022-08-17T14:19:43.311Z,22.32
2022-08-17T14:22:27.013Z,22.23
2022-08-17T14:25:01.680Z,22.52
2022-08-17T14:27:34.125Z,22.12
2022-08-17T14:30:22.777Z,22.16
2022-08-17T14:32:52.773Z,22.51
2022-08-17T14:35:24.974Z,22.77
2022-08-17T14:37:55.343Z,22.82
2022-08-17T14:40:28.211Z,22.41
2022-08-17T14:42:59.350Z,22.38
2022-08-17T14:45:32.228Z,22.25
2022-08-17T14:48:07.776Z,22.61
2022-08-17T14:50:38.435Z,22.76
2022-08-17T14:53:09.556Z,22.66
2022-08-17T14:55:42.456Z,22.77
2022-08-17T14:58:12.319Z,22.59
2022-08-17T15:00:43.782Z,23.06
2022-08-17T15:03:14.656Z,23.04
2022-08-17T15:05:45.554Z,22.68
2022-08-17T15:08:16.738Z,22.90
2022-08-17T15:10:50.061Z,22.79
2022-08-17T15:13:23.430Z,23.33
2022-08-17T15:15:56.947Z,22.96
2022-08-17T15:18:27.067Z,23.42
2022-08-17T15:20:57.182Z,22.79
2022-08-17T15:23:29.003Z,23.71
2022-08-17T15:26:01.887Z,23.68
2022-08-17T15:28:31.678Z,23.39
2022-08-17T15:31:01.553Z,23.48
2022-08-17T15:33:31.978Z,23.37
2022-08-17T15:36:03.924Z,22.73
2022-08-17T15:38:39.290Z,23.19
2022-08-17T15:41:17.984Z,23.14
2022-08-17T15:43:49.964Z,23.54
2022-08-17T15:46:22.026Z,23.77
2022-08-17T15:48:55.642Z,23.53
2022-08-17T15:51:28.646Z,23.86
2022-08-17T15:54:00.385Z,24.03
2022-08-17T15:56:37.054Z,23.87
2022-08-17T15:59:07.317Z,23.76
2022-08-17T16:03:13.295Z,23.86
2022-08-17T16:04:30.983Z,23.78
2022-08-17T16:07:02.120Z,24.33
2022-08-17T16:09:32.142Z,23.76
2022-08-17T16:12:14.683Z,23.87
2022-08-17T16:14:44.576Z,23.98
2022-08-17T16:17:38.990Z,24.24
2022-08-17T16:20:04.989Z,23.68
2022-08-17T16:22:37.964Z,24.34
2022-08-17T16:25:11.329Z,24.20
2022-08-17T16:27:44.009Z,24.34
2022-08-17T16:30:17.755Z,23.63
2022-08-17T16:32:48.685Z,23.99
2022-08-17T16:35:21.263Z,24.15
2022-08-17T16:37:54.983Z,23.77
2022-08-17T16:40:26.049Z,23.99
2022-08-17T16:42:58.933Z,24.15
2022-08-17T16:45:36.964Z,23.99
2022-08-17T16:48:07.515Z,24.92
2022-08-17T16:50:37.568Z,24.49
2022-08-17T16:53:10.687Z,24.27
2022-08-17T16:55:43.184Z,24.95
2022-08-17T16:58:15.970Z,24.46
2022-08-17T17:00:48.818Z,24.78
2022-08-17T17:03:21.579Z,24.67
2022-08-17T17:06:06.562Z,24.73
2022-08-17T17:08:44.354Z,24.34
2022-08-17T17:11:27.716Z,24.64
2022-08-17T17:14:02.460Z,24.26
2022-08-17T17:16:39.819Z,24.42
2022-08-17T17:19:18.016Z,23.90
2022-08-17T17:22:16.697Z,24.10
2022-08-17T17:24:56.342Z,24.87
2022-08-17T17:27:36.497Z,24.78
2022-08-17T17:30:13.515Z,25.14
2022-08-17T17:32:52.234Z,24.73
2022-08-17T17:35:29.015Z,25.23
2022-08-17T17:38:00.687Z,24.55
2022-08-17T17:40:38.308Z,25.63
2022-08-17T17:43:37.221Z,25.87
2022-08-17T17:46:27.637Z,24.85
2022-08-17T17:48:59.227Z,25.78
2022-08-17T17:52:02.795Z,25.14
2022-08-17T17:54:39.496Z,26.10
2022-08-17T17:57:18.364Z,25.89
2022-08-17T17:59:57.239Z,26.15
2022-08-17T18:02:52.854Z,25.98
2022-08-17T18:05:38.962Z,25.77
2022-08-17T18:08:21.080Z,25.70
2022-08-17T18:11:10.656Z,25.69
2022-08-17T18:13:54.233Z,26.13
2022-08-17T18:16:24.934Z,26.41
2022-08-17T18:18:58.089Z,26.00
2022-08-17T18:21:37.835Z,26.03
2022-08-17T18:24:11.193Z,26.50
2022-08-17T18:26:46.844Z,26.80
2022-08-17T18:29:34.518Z,26.86
2022-08-17T18:32:31.277Z,26.74
2022-08-17T18:35:28.054Z,26.45
2022-08-17T18:38:00.644Z,27.33
2022-08-17T18:40:37.724Z,27.41
2022-08-17T18:43:27.041Z,27.61
2022-08-17T18:46:00.220Z,27.86
2022-08-17T18:48:36.556Z,27.87
2022-08-17T18:51:39.905Z,28.01
2022-08-17T18:54:18.623Z,27.58
2022-08-17T18:56:54.046Z,28.21
2022-08-17T18:59:35.590Z,28.37
2022-08-17T19:02:37.295Z,28.34
2022-08-17T19:05:13.923Z,28.30
2022-08-17T19:07:48.950Z,27.78
2022-08-17T19:10:28.332Z,28.80
2022-08-17T19:13:01.165Z,28.52
2022-08-17T19:15:38.297Z,28.23
2022-08-17T19:18:15.870Z,28.74
2022-08-17T19:20:50.328Z,28.85
2022-08-17T19:23:28.381Z,28.93
2022-08-17T19:26:02.578Z,28.48
2022-08-17T19:28:41.417Z,28.95
2022-08-17T19:31:17.729Z,29.16
2022-08-17T19:33:47.833Z,28.76
2022-08-17T19:36:35.527Z,28.82
2022-08-17T19:39:13.776Z,29.30
2022-08-17T19:41:49.950Z,28.99
2022-08-17T19:44:46.562Z,29.02
2022-08-17T19:47:51.017Z,28.51
2022-08-17T19:50:22.641Z,28.53
2022-08-17T19:52:59.700Z,28.94
2022-08-17T19:55:44.611Z,29.14
2022-08-17T19:58:30.753Z,28.80
2022-08-17T20:01:02.133Z,29.13
2022-08-17T20:03:38.066Z,28.94
2022-08-17T20:06:14.094Z,29.11
2022-08-17T20:08:53.973Z,29.09
2022-08-17T20:11:34.195Z,28.97
2022-08-17T20:14:09.356Z,28.93
2022-08-17T20:16:39.184Z,29.38
2022-08-17T20:19:15.061Z,29.14
2022-08-17T20:21:55.248Z,29.03
2022-08-17T20:24:32.828Z,29.10
2022-08-17T20:27:16.907Z,29.56
2022-08-17T20:30:04.079Z,29.23
2022-08-17T20:32:38.338Z,29.40
2022-08-17T20:35:26.030Z,29.33
2022-08-17T20:38:02.249Z,29.88
2022-08-17T20:40:36.472Z,29.64
2022-08-17T20:43:38.262Z,29.78
2022-08-17T20:46:23.803Z,29.73
2022-08-17T20:48:58.107Z,30.17
2022-08-17T20:51:32.507Z,29.70
2022-08-17T20:54:09.285Z,29.75
2022-08-17T20:56:57.860Z,29.55
2022-08-17T20:59:58.042Z,30.06
2022-08-17T21:02:32.407Z,29.75
2022-08-17T21:05:09.981Z,29.85
2022-08-17T21:07:58.098Z,29.98
2022-08-17T21:10:39.843Z,30.19
2022-08-17T21:13:50.218Z,29.88
2022-08-17T21:16:50.359Z,30.53
2022-08-17T21:20:07.763Z,30.42
2022-08-17T21:22:55.759Z,30.31
2022-08-17T21:25:43.310Z,30.27
2022-08-17T21:28:20.349Z,30.45
2022-08-17T21:30:58.489Z,30.75
2022-08-17T21:33:31.599Z,30.70
2022-08-17T21:36:29.668Z,30.79
2022-08-17T21:39:09.240Z,31.08
2022-08-17T21:41:53.081Z,30.80
2022-08-17T21:44:31.148Z,31.16
2022-08-17T21:47:18.476Z,31.18
2022-08-17T21:49:48.425Z,31.53
2022-08-17T21:52:23.780Z,31.54
2022-08-17T21:54:56.264Z,31.38
2022-08-17T21:57:28.930Z,31.69
2022-08-17T22:00:01.774Z,31.90
2022-08-17T22:02:36.708Z,32.31
2022-08-17T22:05:09.745Z,31.95
2022-08-17T22:07:45.843Z,32.43
2022-08-17T22:10:32.489Z,32.39
2022-08-17T22:13:16.498Z,32.22
2022-08-17T22:15:49.520Z,32.59
2022-08-17T22:18:24.622Z,32.47
2022-08-17T22:20:57.523Z,33.04
2022-08-17T22:23:45.487Z,32.83
2022-08-17T22:26:18.689Z,32.92
2022-08-17T22:28:52.386Z,33.25
2022-08-17T22:31:24.673Z,33.27
2022-08-17T22:34:10.201Z,33.81
2022-08-17T22:36:41.917Z,33.48
2022-08-17T22:39:44.797Z,33.66
2022-08-17T22:42:21.029Z,33.83
2022-08-17T22:44:53.307Z,34.09
2022-08-17T22:47:40.636Z,33.95
2022-08-17T22:50:19.207Z,34.16
2022-08-17T22:53:11.980Z,33.92
2022-08-17T22:56:05.216Z,33.84
2022-08-17T22:58:58.928Z,34.23
2022-08-17T23:01:32.531Z,34.32
2022-08-17T23:04:04.748Z,34.36
2022-08-17T23:06:36.516Z,34.78
2022-08-17T23:09:08.923Z,34.51
2022-08-17T23:11:49.705Z,34.67
2022-08-17T23:14:22.508Z,34.84
2022-08-17T23:16:52.895Z,35.10
2022-08-17T23:19:24.790Z,34.97
2022-08-17T23:21:55.322Z,35.15
2022-08-17T23:24:28.541Z,34.72
2022-08-17T23:27:01.694Z,35.08
2022-08-17T23:29:31.989Z,34.98
2022-08-17T23:32:04.815Z,35.15
2022-08-17T23:34:35.214Z,34.84
2022-08-17T23:37:05.086Z,35.49
2022-08-17T23:39:35.067Z,34.86
2022-08-17T23:42:13.798Z,35.38
2022-08-17T23:44:44.889Z,35.66
2022-08-17T23:47:14.705Z,35.51
2022-08-17T23:49:44.547Z,35.75
2022-08-17T23:52:17.955Z,35.46
2022-08-17T23:54:49.965Z,35.38
2022-08-17T23:57:33.966Z,35.20
